sensor_id;sensor_type;location;lat;lon;timestamp;temperature;humidity
23371;DHT22;11858;51.056;3.712;2023-02-10T00:01:02;5.20;99.90
23371;DHT22;11858;51.056;3.712;2023-02-10T00:03:28;5.20;99.90
23371;DHT22;11858;51.056;3.712;2023-02-10T00:05:54;5.20;99.90
23371;DHT22;11858;51.056;3.712;2023-02-10T00:08:20;5.30;99.90
23371;DHT22;11858;51.056;3.712;2023-02-10T00:10:45;5.30;99.90
23371;DHT22;11858;51.056;3.712;2023-02-10T00:13:11;5.20;99.90
23371;DHT22;11858;51.056;3.712;2023-02-10T00:15:37;5.20;99.90
23371;DHT22;11858;51.056;3.712;2023-02-10T00:18:03;5.10;99.90
23371;DHT22;11858;51.056;3.712;2023-02-10T00:20:28;5.30;99.90
23371;DHT22;11858;51.056;3.712;2023-02-10T00:22:54;5.30;99.90
23371;DHT22;11858;51.056;3.712;2023-02-10T00:25:20;5.40;99.90
23371;DHT22;11858;51.056;3.712;2023-02-10T00:27:45;5.40;99.90
23371;DHT22;11858;51.056;3.712;2023-02-10T00:30:11;5.50;99.90
23371;DHT22;11858;51.056;3.712;2023-02-10T00:32:37;5.50;99.90
23371;DHT22;11858;51.056;3.712;2023-02-10T00:35:06;5.50;99.90
23371;DHT22;11858;51.056;3.712;2023-02-10T00:37:32;5.50;99.90
23371;DHT22;11858;51.056;3.712;2023-02-10T00:39:58;5.50;99.90
23371;DHT22;11858;51.056;3.712;2023-02-10T00:42:24;5.50;99.90
23371;DHT22;11858;51.056;3.712;2023-02-10T00:44:50;5.40;99.90
23371;DHT22;11858;51.056;3.712;2023-02-10T00:47:16;5.60;99.90
23371;DHT22;11858;51.056;3.712;2023-02-10T00:49:41;5.60;99.90
23371;DHT22;11858;51.056;3.712;2023-02-10T00:52:07;5.70;99.90
23371;DHT22;11858;51.056;3.712;2023-02-10T00:54:33;5.70;99.90
23371;DHT22;11858;51.056;3.712;2023-02-10T00:56:59;5.70;99.90
23371;DHT22;11858;51.056;3.712;2023-02-10T00:59:24;5.60;99.90
23371;DHT22;11858;51.056;3.712;2023-02-10T01:01:50;5.50;99.90
23371;DHT22;11858;51.056;3.712;2023-02-10T01:04:16;5.60;99.90
23371;DHT22;11858;51.056;3.712;2023-02-10T01:06:42;5.60;99.90
23371;DHT22;11858;51.056;3.712;2023-02-10T01:09:09;5.70;99.90
23371;DHT22;11858;51.056;3.712;2023-02-10T01:11:35;5.60;99.90
23371;DHT22;11858;51.056;3.712;2023-02-10T01:14:01;5.60;99.90
23371;DHT22;11858;51.056;3.712;2023-02-10T01:16:27;5.60;99.90
23371;DHT22;11858;51.056;3.712;2023-02-10T01:18:53;5.50;99.90
23371;DHT22;11858;51.056;3.712;2023-02-10T01:21:20;5.50;99.90
23371;DHT22;11858;51.056;3.712;2023-02-10T01:23:46;5.50;99.90
23371;DHT22;11858;51.056;3.712;2023-02-10T01:26:13;5.50;99.90
23371;DHT22;11858;51.056;3.712;2023-02-10T01:28:40;5.40;99.90
23371;DHT22;11858;51.056;3.712;2023-02-10T01:31:08;5.40;99.90
23371;DHT22;11858;51.056;3.712;2023-02-10T01:33:33;5.30;99.90
23371;DHT22;11858;51.056;3.712;2023-02-10T01:36:04;5.30;99.90
23371;DHT22;11858;51.056;3.712;2023-02-10T01:38:30;5.20;99.90
23371;DHT22;11858;51.056;3.712;2023-02-10T01:40:56;5.20;99.90
23371;DHT22;11858;51.056;3.712;2023-02-10T01:43:22;5.10;99.90
23371;DHT22;11858;51.056;3.712;2023-02-10T01:45:47;5.00;99.90
23371;DHT22;11858;51.056;3.712;2023-02-10T01:48:14;4.80;99.90
23371;DHT22;11858;51.056;3.712;2023-02-10T01:50:41;4.60;99.90
23371;DHT22;11858;51.056;3.712;2023-02-10T01:53:08;4.60;99.90
23371;DHT22;11858;51.056;3.712;2023-02-10T01:55:35;4.50;99.90
23371;DHT22;11858;51.056;3.712;2023-02-10T01:58:14;4.40;99.90
23371;DHT22;11858;51.056;3.712;2023-02-10T02:00:41;4.40;99.90
23371;DHT22;11858;51.056;3.712;2023-02-10T02:03:07;4.40;99.90
23371;DHT22;11858;51.056;3.712;2023-02-10T02:05:35;4.40;99.90
23371;DHT22;11858;51.056;3.712;2023-02-10T02:08:09;4.30;99.90
23371;DHT22;11858;51.056;3.712;2023-02-10T02:16:19;4.00;99.90
23371;DHT22;11858;51.056;3.712;2023-02-10T02:37:18;3.80;99.90
23371;DHT22;11858;51.056;3.712;2023-02-10T02:39:51;3.70;99.90
23371;DHT22;11858;51.056;3.712;2023-02-10T02:42:24;3.70;99.90
23371;DHT22;11858;51.056;3.712;2023-02-10T02:45:00;3.60;99.90
23371;DHT22;11858;51.056;3.712;2023-02-10T02:55:41;3.50;99.90
23371;DHT22;11858;51.056;3.712;2023-02-10T02:58:32;3.40;99.90
23371;DHT22;11858;51.056;3.712;2023-02-10T03:01:03;3.50;99.90
23371;DHT22;11858;51.056;3.712;2023-02-10T03:03:35;3.50;99.90
23371;DHT22;11858;51.056;3.712;2023-02-10T03:06:02;3.50;99.90
23371;DHT22;11858;51.056;3.712;2023-02-10T03:08:33;3.50;99.90
23371;DHT22;11858;51.056;3.712;2023-02-10T03:10:59;3.40;99.90
23371;DHT22;11858;51.056;3.712;2023-02-10T03:13:24;3.50;99.90
23371;DHT22;11858;51.056;3.712;2023-02-10T03:15:50;3.70;99.90
23371;DHT22;11858;51.056;3.712;2023-02-10T03:18:16;3.60;99.90
23371;DHT22;11858;51.056;3.712;2023-02-10T03:20:42;3.60;99.90
23371;DHT22;11858;51.056;3.712;2023-02-10T03:23:09;3.70;99.90
23371;DHT22;11858;51.056;3.712;2023-02-10T03:25:35;3.70;99.90
23371;DHT22;11858;51.056;3.712;2023-02-10T03:28:01;3.60;99.90
23371;DHT22;11858;51.056;3.712;2023-02-10T03:30:27;3.50;99.90
23371;DHT22;11858;51.056;3.712;2023-02-10T03:32:53;3.50;99.90
23371;DHT22;11858;51.056;3.712;2023-02-10T03:35:19;3.60;99.90
23371;DHT22;11858;51.056;3.712;2023-02-10T03:37:45;3.50;99.90
23371;DHT22;11858;51.056;3.712;2023-02-10T03:40:11;3.40;99.90
23371;DHT22;11858;51.056;3.712;2023-02-10T03:42:37;3.40;99.90
23371;DHT22;11858;51.056;3.712;2023-02-10T03:45:03;3.30;99.90
23371;DHT22;11858;51.056;3.712;2023-02-10T03:47:29;3.30;99.90
23371;DHT22;11858;51.056;3.712;2023-02-10T03:49:55;3.40;99.90
23371;DHT22;11858;51.056;3.712;2023-02-10T03:52:21;3.40;99.90
23371;DHT22;11858;51.056;3.712;2023-02-10T03:54:47;3.30;99.90
23371;DHT22;11858;51.056;3.712;2023-02-10T03:57:12;3.30;99.90
23371;DHT22;11858;51.056;3.712;2023-02-10T03:59:38;3.30;99.90
23371;DHT22;11858;51.056;3.712;2023-02-10T04:02:04;3.40;99.90
23371;DHT22;11858;51.056;3.712;2023-02-10T04:04:30;3.40;99.90
23371;DHT22;11858;51.056;3.712;2023-02-10T04:06:55;3.40;99.90
23371;DHT22;11858;51.056;3.712;2023-02-10T04:09:21;3.50;99.90
23371;DHT22;11858;51.056;3.712;2023-02-10T04:11:48;3.50;99.90
23371;DHT22;11858;51.056;3.712;2023-02-10T04:14:14;3.50;99.90
23371;DHT22;11858;51.056;3.712;2023-02-10T04:16:39;3.50;99.90
23371;DHT22;11858;51.056;3.712;2023-02-10T04:19:05;3.70;99.90
23371;DHT22;11858;51.056;3.712;2023-02-10T04:21:31;3.50;99.90
23371;DHT22;11858;51.056;3.712;2023-02-10T04:23:57;3.50;99.90
23371;DHT22;11858;51.056;3.712;2023-02-10T04:26:23;3.50;99.90
23371;DHT22;11858;51.056;3.712;2023-02-10T04:28:49;3.50;99.90
23371;DHT22;11858;51.056;3.712;2023-02-10T04:31:14;3.60;99.90
23371;DHT22;11858;51.056;3.712;2023-02-10T04:33:40;3.80;99.90
23371;DHT22;11858;51.056;3.712;2023-02-10T04:36:06;3.70;99.90
23371;DHT22;11858;51.056;3.712;2023-02-10T04:38:32;3.60;99.90
23371;DHT22;11858;51.056;3.712;2023-02-10T04:40:58;3.60;99.90
23371;DHT22;11858;51.056;3.712;2023-02-10T04:43:24;3.60;99.90
23371;DHT22;11858;51.056;3.712;2023-02-10T04:45:49;3.60;99.90
23371;DHT22;11858;51.056;3.712;2023-02-10T04:48:15;3.60;99.90
23371;DHT22;11858;51.056;3.712;2023-02-10T04:50:41;3.50;99.90
23371;DHT22;11858;51.056;3.712;2023-02-10T04:53:08;3.50;99.90
23371;DHT22;11858;51.056;3.712;2023-02-10T04:55:34;3.40;99.90
23371;DHT22;11858;51.056;3.712;2023-02-10T04:58:00;3.40;99.90
23371;DHT22;11858;51.056;3.712;2023-02-10T05:00:26;3.40;99.90
23371;DHT22;11858;51.056;3.712;2023-02-10T05:02:52;3.40;99.90
23371;DHT22;11858;51.056;3.712;2023-02-10T05:05:18;3.70;99.90
23371;DHT22;11858;51.056;3.712;2023-02-10T05:07:44;3.60;99.90
23371;DHT22;11858;51.056;3.712;2023-02-10T05:10:11;3.70;99.90
23371;DHT22;11858;51.056;3.712;2023-02-10T05:12:37;3.70;99.90
23371;DHT22;11858;51.056;3.712;2023-02-10T05:15:03;3.70;99.90
23371;DHT22;11858;51.056;3.712;2023-02-10T05:17:29;3.70;99.90
23371;DHT22;11858;51.056;3.712;2023-02-10T05:19:54;3.70;99.90
23371;DHT22;11858;51.056;3.712;2023-02-10T05:22:20;3.80;99.90
23371;DHT22;11858;51.056;3.712;2023-02-10T05:24:52;3.90;99.90
23371;DHT22;11858;51.056;3.712;2023-02-10T05:27:19;3.90;99.90
23371;DHT22;11858;51.056;3.712;2023-02-10T05:29:45;3.90;99.90
23371;DHT22;11858;51.056;3.712;2023-02-10T05:32:11;3.90;99.90
23371;DHT22;11858;51.056;3.712;2023-02-10T05:34:36;3.90;99.90
23371;DHT22;11858;51.056;3.712;2023-02-10T05:37:02;3.90;99.90
23371;DHT22;11858;51.056;3.712;2023-02-10T05:39:27;3.80;99.90
23371;DHT22;11858;51.056;3.712;2023-02-10T05:41:55;3.70;99.90
23371;DHT22;11858;51.056;3.712;2023-02-10T05:44:24;3.80;99.90
23371;DHT22;11858;51.056;3.712;2023-02-10T05:46:50;3.70;99.90
23371;DHT22;11858;51.056;3.712;2023-02-10T05:49:17;3.80;99.90
23371;DHT22;11858;51.056;3.712;2023-02-10T05:51:43;3.80;99.90
23371;DHT22;11858;51.056;3.712;2023-02-10T05:54:09;3.70;99.90
23371;DHT22;11858;51.056;3.712;2023-02-10T05:56:35;3.70;99.90
23371;DHT22;11858;51.056;3.712;2023-02-10T05:59:01;3.70;99.90
23371;DHT22;11858;51.056;3.712;2023-02-10T06:01:27;3.70;99.90
23371;DHT22;11858;51.056;3.712;2023-02-10T06:03:53;3.60;99.90
23371;DHT22;11858;51.056;3.712;2023-02-10T06:06:19;3.50;99.90
23371;DHT22;11858;51.056;3.712;2023-02-10T06:08:45;3.50;99.90
23371;DHT22;11858;51.056;3.712;2023-02-10T06:11:10;3.30;99.90
23371;DHT22;11858;51.056;3.712;2023-02-10T06:13:36;3.30;99.90
23371;DHT22;11858;51.056;3.712;2023-02-10T06:16:03;3.40;99.90
23371;DHT22;11858;51.056;3.712;2023-02-10T06:18:30;3.40;99.90
23371;DHT22;11858;51.056;3.712;2023-02-10T06:20:56;3.20;99.90
23371;DHT22;11858;51.056;3.712;2023-02-10T06:23:23;3.20;99.90
23371;DHT22;11858;51.056;3.712;2023-02-10T06:25:50;3.20;99.90
23371;DHT22;11858;51.056;3.712;2023-02-10T06:28:21;3.20;99.90
23371;DHT22;11858;51.056;3.712;2023-02-10T06:30:47;3.10;99.90
23371;DHT22;11858;51.056;3.712;2023-02-10T06:33:13;3.10;99.90
23371;DHT22;11858;51.056;3.712;2023-02-10T06:35:38;3.10;99.90
23371;DHT22;11858;51.056;3.712;2023-02-10T06:38:04;3.00;99.90
23371;DHT22;11858;51.056;3.712;2023-02-10T06:40:30;3.10;99.90
23371;DHT22;11858;51.056;3.712;2023-02-10T06:42:56;3.10;99.90
23371;DHT22;11858;51.056;3.712;2023-02-10T06:45:22;3.00;99.90
23371;DHT22;11858;51.056;3.712;2023-02-10T06:47:48;2.90;99.90
23371;DHT22;11858;51.056;3.712;2023-02-10T06:50:15;2.80;99.90
23371;DHT22;11858;51.056;3.712;2023-02-10T06:52:43;2.90;99.90
23371;DHT22;11858;51.056;3.712;2023-02-10T06:55:10;3.00;99.90
23371;DHT22;11858;51.056;3.712;2023-02-10T06:57:36;3.10;99.90
23371;DHT22;11858;51.056;3.712;2023-02-10T07:00:08;3.10;99.90
23371;DHT22;11858;51.056;3.712;2023-02-10T07:02:35;3.10;99.90
23371;DHT22;11858;51.056;3.712;2023-02-10T07:05:00;3.20;99.90
23371;DHT22;11858;51.056;3.712;2023-02-10T07:07:28;3.30;99.90
23371;DHT22;11858;51.056;3.712;2023-02-10T07:09:54;3.30;99.90
23371;DHT22;11858;51.056;3.712;2023-02-10T07:12:20;3.20;99.90
23371;DHT22;11858;51.056;3.712;2023-02-10T07:14:46;3.20;99.90
23371;DHT22;11858;51.056;3.712;2023-02-10T07:17:11;3.10;99.90
23371;DHT22;11858;51.056;3.712;2023-02-10T07:19:37;3.20;99.90
23371;DHT22;11858;51.056;3.712;2023-02-10T07:22:03;3.20;99.90
23371;DHT22;11858;51.056;3.712;2023-02-10T07:24:30;3.30;99.90
23371;DHT22;11858;51.056;3.712;2023-02-10T07:26:56;3.40;99.90
23371;DHT22;11858;51.056;3.712;2023-02-10T07:29:22;3.60;99.90
23371;DHT22;11858;51.056;3.712;2023-02-10T07:31:48;3.70;99.90
23371;DHT22;11858;51.056;3.712;2023-02-10T07:34:13;3.80;99.90
23371;DHT22;11858;51.056;3.712;2023-02-10T07:36:39;3.70;99.90
23371;DHT22;11858;51.056;3.712;2023-02-10T07:39:05;3.80;99.90
23371;DHT22;11858;51.056;3.712;2023-02-10T07:41:31;3.90;99.90
23371;DHT22;11858;51.056;3.712;2023-02-10T07:43:56;4.00;99.90
23371;DHT22;11858;51.056;3.712;2023-02-10T07:46:22;4.10;99.90
23371;DHT22;11858;51.056;3.712;2023-02-10T07:48:48;4.00;99.90
23371;DHT22;11858;51.056;3.712;2023-02-10T07:51:13;4.10;99.90
23371;DHT22;11858;51.056;3.712;2023-02-10T07:53:39;4.00;99.90
23371;DHT22;11858;51.056;3.712;2023-02-10T07:56:05;4.10;99.90
23371;DHT22;11858;51.056;3.712;2023-02-10T07:58:31;4.10;99.90
23371;DHT22;11858;51.056;3.712;2023-02-10T08:00:57;4.20;99.90
23371;DHT22;11858;51.056;3.712;2023-02-10T08:03:22;4.30;99.90
23371;DHT22;11858;51.056;3.712;2023-02-10T08:05:48;4.40;99.90
23371;DHT22;11858;51.056;3.712;2023-02-10T08:08:14;4.40;99.90
23371;DHT22;11858;51.056;3.712;2023-02-10T08:10:40;4.50;99.90
23371;DHT22;11858;51.056;3.712;2023-02-10T08:13:06;4.40;99.90
23371;DHT22;11858;51.056;3.712;2023-02-10T08:15:33;4.40;99.90
23371;DHT22;11858;51.056;3.712;2023-02-10T08:17:59;4.50;99.90
23371;DHT22;11858;51.056;3.712;2023-02-10T08:20:25;4.60;99.90
23371;DHT22;11858;51.056;3.712;2023-02-10T08:22:55;4.60;99.90
23371;DHT22;11858;51.056;3.712;2023-02-10T08:25:21;4.70;99.90
23371;DHT22;11858;51.056;3.712;2023-02-10T08:27:47;4.80;99.90
23371;DHT22;11858;51.056;3.712;2023-02-10T08:30:12;4.80;99.90
23371;DHT22;11858;51.056;3.712;2023-02-10T08:32:38;4.90;99.90
23371;DHT22;11858;51.056;3.712;2023-02-10T08:35:06;5.10;99.90
23371;DHT22;11858;51.056;3.712;2023-02-10T08:37:32;5.30;99.90
23371;DHT22;11858;51.056;3.712;2023-02-10T08:39:57;5.20;99.90
23371;DHT22;11858;51.056;3.712;2023-02-10T08:42:24;5.20;99.90
23371;DHT22;11858;51.056;3.712;2023-02-10T08:44:50;5.20;99.90
23371;DHT22;11858;51.056;3.712;2023-02-10T08:47:16;5.30;99.90
23371;DHT22;11858;51.056;3.712;2023-02-10T08:49:41;5.40;99.90
23371;DHT22;11858;51.056;3.712;2023-02-10T08:52:07;5.30;99.90
23371;DHT22;11858;51.056;3.712;2023-02-10T08:54:33;5.20;99.90
23371;DHT22;11858;51.056;3.712;2023-02-10T08:56:59;5.20;99.90
23371;DHT22;11858;51.056;3.712;2023-02-10T08:59:25;5.20;99.90
23371;DHT22;11858;51.056;3.712;2023-02-10T09:01:50;5.30;99.90
23371;DHT22;11858;51.056;3.712;2023-02-10T09:04:16;5.20;99.90
23371;DHT22;11858;51.056;3.712;2023-02-10T09:06:42;5.10;99.90
23371;DHT22;11858;51.056;3.712;2023-02-10T09:09:14;4.90;99.90
23371;DHT22;11858;51.056;3.712;2023-02-10T09:11:41;4.90;99.90
23371;DHT22;11858;51.056;3.712;2023-02-10T09:14:07;4.80;99.90
23371;DHT22;11858;51.056;3.712;2023-02-10T09:16:33;4.80;99.90
23371;DHT22;11858;51.056;3.712;2023-02-10T09:18:59;4.80;99.90
23371;DHT22;11858;51.056;3.712;2023-02-10T09:21:25;4.80;99.90
23371;DHT22;11858;51.056;3.712;2023-02-10T09:23:51;4.80;99.90
23371;DHT22;11858;51.056;3.712;2023-02-10T09:26:17;4.80;99.90
23371;DHT22;11858;51.056;3.712;2023-02-10T09:28:43;5.00;99.90
23371;DHT22;11858;51.056;3.712;2023-02-10T09:31:09;5.00;99.90
23371;DHT22;11858;51.056;3.712;2023-02-10T09:33:36;5.30;99.90
23371;DHT22;11858;51.056;3.712;2023-02-10T09:36:03;5.30;99.90
23371;DHT22;11858;51.056;3.712;2023-02-10T09:38:29;5.60;99.90
23371;DHT22;11858;51.056;3.712;2023-02-10T09:41:31;5.70;99.90
23371;DHT22;11858;51.056;3.712;2023-02-10T09:55:45;5.70;99.90
23371;DHT22;11858;51.056;3.712;2023-02-10T10:00:43;5.80;99.90
23371;DHT22;11858;51.056;3.712;2023-02-10T10:03:23;5.90;99.90
23371;DHT22;11858;51.056;3.712;2023-02-10T10:06:18;5.90;99.90
23371;DHT22;11858;51.056;3.712;2023-02-10T10:11:49;6.20;99.90
23371;DHT22;11858;51.056;3.712;2023-02-10T10:25:17;6.30;99.90
23371;DHT22;11858;51.056;3.712;2023-02-10T10:28:14;6.40;99.90
23371;DHT22;11858;51.056;3.712;2023-02-10T10:30:49;6.60;99.90
23371;DHT22;11858;51.056;3.712;2023-02-10T10:36:14;6.60;99.90
23371;DHT22;11858;51.056;3.712;2023-02-10T10:38:46;6.60;99.90
23371;DHT22;11858;51.056;3.712;2023-02-10T10:41:14;6.70;99.90
23371;DHT22;11858;51.056;3.712;2023-02-10T10:43:48;6.80;99.90
23371;DHT22;11858;51.056;3.712;2023-02-10T10:49:18;7.00;99.90
23371;DHT22;11858;51.056;3.712;2023-02-10T10:51:43;6.90;99.90
23371;DHT22;11858;51.056;3.712;2023-02-10T10:54:19;7.00;99.90
23371;DHT22;11858;51.056;3.712;2023-02-10T10:56:50;7.20;99.90
23371;DHT22;11858;51.056;3.712;2023-02-10T10:59:20;7.30;99.90
23371;DHT22;11858;51.056;3.712;2023-02-10T11:01:51;7.30;99.90
23371;DHT22;11858;51.056;3.712;2023-02-10T11:04:26;7.30;99.90
23371;DHT22;11858;51.056;3.712;2023-02-10T11:06:56;7.40;99.90
23371;DHT22;11858;51.056;3.712;2023-02-10T11:11:53;7.60;99.90
23371;DHT22;11858;51.056;3.712;2023-02-10T11:14:27;7.50;99.90
23371;DHT22;11858;51.056;3.712;2023-02-10T11:16:59;7.50;99.90
23371;DHT22;11858;51.056;3.712;2023-02-10T11:19:34;7.60;99.90
23371;DHT22;11858;51.056;3.712;2023-02-10T11:22:01;7.60;99.90
23371;DHT22;11858;51.056;3.712;2023-02-10T11:24:32;7.60;99.90
23371;DHT22;11858;51.056;3.712;2023-02-10T11:26:59;7.70;99.90
23371;DHT22;11858;51.056;3.712;2023-02-10T11:29:27;7.60;99.90
23371;DHT22;11858;51.056;3.712;2023-02-10T11:31:54;7.60;99.90
23371;DHT22;11858;51.056;3.712;2023-02-10T11:34:28;7.70;99.90
23371;DHT22;11858;51.056;3.712;2023-02-10T11:36:57;7.70;99.90
23371;DHT22;11858;51.056;3.712;2023-02-10T11:39:31;7.70;99.90
23371;DHT22;11858;51.056;3.712;2023-02-10T11:42:19;8.00;99.90
23371;DHT22;11858;51.056;3.712;2023-02-10T11:44:57;8.30;99.90
23371;DHT22;11858;51.056;3.712;2023-02-10T11:47:25;8.30;99.90
23371;DHT22;11858;51.056;3.712;2023-02-10T11:49:52;8.50;99.90
23371;DHT22;11858;51.056;3.712;2023-02-10T11:52:22;8.60;99.90
23371;DHT22;11858;51.056;3.712;2023-02-10T11:54:50;8.50;99.90
23371;DHT22;11858;51.056;3.712;2023-02-10T11:57:48;8.50;99.90
23371;DHT22;11858;51.056;3.712;2023-02-10T12:05:58;8.30;99.90
23371;DHT22;11858;51.056;3.712;2023-02-10T12:08:59;8.20;99.90
23371;DHT22;11858;51.056;3.712;2023-02-10T12:11:37;8.30;99.90
23371;DHT22;11858;51.056;3.712;2023-02-10T12:17:42;8.50;99.90
23371;DHT22;11858;51.056;3.712;2023-02-10T12:20:12;8.80;99.90
23371;DHT22;11858;51.056;3.712;2023-02-10T12:23:33;9.10;99.90
23371;DHT22;11858;51.056;3.712;2023-02-10T12:37:04;10.00;99.90
23371;DHT22;11858;51.056;3.712;2023-02-10T12:39:46;10.30;99.90
23371;DHT22;11858;51.056;3.712;2023-02-10T12:51:22;11.20;99.90
23371;DHT22;11858;51.056;3.712;2023-02-10T12:53:55;11.00;99.90
23371;DHT22;11858;51.056;3.712;2023-02-10T12:56:23;10.90;99.90
23371;DHT22;11858;51.056;3.712;2023-02-10T12:59:11;10.80;99.90
23371;DHT22;11858;51.056;3.712;2023-02-10T13:01:42;10.80;99.90
23371;DHT22;11858;51.056;3.712;2023-02-10T13:06:42;11.00;99.90
23371;DHT22;11858;51.056;3.712;2023-02-10T13:12:17;12.10;99.90
23371;DHT22;11858;51.056;3.712;2023-02-10T13:14:46;11.40;99.90
23371;DHT22;11858;51.056;3.712;2023-02-10T13:17:14;11.40;99.90
23371;DHT22;11858;51.056;3.712;2023-02-10T13:20:00;11.40;99.90
23371;DHT22;11858;51.056;3.712;2023-02-10T13:22:48;12.30;99.90
23371;DHT22;11858;51.056;3.712;2023-02-10T13:31:03;14.20;99.90
23371;DHT22;11858;51.056;3.712;2023-02-10T13:36:23;14.80;99.90
23371;DHT22;11858;51.056;3.712;2023-02-10T13:39:20;14.40;99.90
23371;DHT22;11858;51.056;3.712;2023-02-10T13:41:49;14.50;99.90
23371;DHT22;11858;51.056;3.712;2023-02-10T13:44:33;14.70;99.90
23371;DHT22;11858;51.056;3.712;2023-02-10T13:49:57;14.10;99.90
23371;DHT22;11858;51.056;3.712;2023-02-10T13:52:28;14.30;99.90
23371;DHT22;11858;51.056;3.712;2023-02-10T13:54:58;15.20;99.90
23371;DHT22;11858;51.056;3.712;2023-02-10T13:57:35;15.60;99.90
23371;DHT22;11858;51.056;3.712;2023-02-10T14:00:15;15.80;99.90
23371;DHT22;11858;51.056;3.712;2023-02-10T14:13:39;15.30;99.90
23371;DHT22;11858;51.056;3.712;2023-02-10T14:16:27;15.10;99.90
23371;DHT22;11858;51.056;3.712;2023-02-10T14:19:06;14.80;99.90
23371;DHT22;11858;51.056;3.712;2023-02-10T14:21:45;14.80;99.90
23371;DHT22;11858;51.056;3.712;2023-02-10T14:24:23;14.10;99.90
23371;DHT22;11858;51.056;3.712;2023-02-10T14:26:50;13.40;99.90
23371;DHT22;11858;51.056;3.712;2023-02-10T14:29:19;12.70;99.90
23371;DHT22;11858;51.056;3.712;2023-02-10T14:31:51;12.20;99.90
23371;DHT22;11858;51.056;3.712;2023-02-10T14:37:01;12.20;99.90
23371;DHT22;11858;51.056;3.712;2023-02-10T14:39:30;12.10;99.90
23371;DHT22;11858;51.056;3.712;2023-02-10T14:41:59;12.40;99.90
23371;DHT22;11858;51.056;3.712;2023-02-10T14:44:44;12.90;99.90
23371;DHT22;11858;51.056;3.712;2023-02-10T14:47:24;12.60;99.90
23371;DHT22;11858;51.056;3.712;2023-02-10T14:49:55;12.90;99.90
23371;DHT22;11858;51.056;3.712;2023-02-10T14:52:35;13.20;99.90
23371;DHT22;11858;51.056;3.712;2023-02-10T14:55:02;13.40;99.90
23371;DHT22;11858;51.056;3.712;2023-02-10T14:57:46;13.30;99.90
23371;DHT22;11858;51.056;3.712;2023-02-10T15:00:14;13.00;99.90
23371;DHT22;11858;51.056;3.712;2023-02-10T15:02:40;13.10;99.90
23371;DHT22;11858;51.056;3.712;2023-02-10T15:05:10;13.40;99.90
23371;DHT22;11858;51.056;3.712;2023-02-10T15:07:49;13.10;99.90
23371;DHT22;11858;51.056;3.712;2023-02-10T15:12:53;13.30;99.90
23371;DHT22;11858;51.056;3.712;2023-02-10T15:18:21;13.30;99.90
23371;DHT22;11858;51.056;3.712;2023-02-10T15:21:03;12.60;99.90
23371;DHT22;11858;51.056;3.712;2023-02-10T15:23:30;12.40;99.90
23371;DHT22;11858;51.056;3.712;2023-02-10T15:26:17;12.00;99.90
23371;DHT22;11858;51.056;3.712;2023-02-10T15:28:43;11.90;99.90
23371;DHT22;11858;51.056;3.712;2023-02-10T15:31:25;11.60;99.90
23371;DHT22;11858;51.056;3.712;2023-02-10T15:36:45;12.00;99.90
23371;DHT22;11858;51.056;3.712;2023-02-10T15:39:33;11.70;99.90
23371;DHT22;11858;51.056;3.712;2023-02-10T15:44:43;11.80;99.90
23371;DHT22;11858;51.056;3.712;2023-02-10T15:47:20;11.90;99.90
23371;DHT22;11858;51.056;3.712;2023-02-10T15:49:48;11.50;99.90
23371;DHT22;11858;51.056;3.712;2023-02-10T15:54:43;11.20;99.90
23371;DHT22;11858;51.056;3.712;2023-02-10T15:57:10;11.20;99.90
23371;DHT22;11858;51.056;3.712;2023-02-10T15:59:37;10.90;99.90
23371;DHT22;11858;51.056;3.712;2023-02-10T16:02:05;10.80;99.90
23371;DHT22;11858;51.056;3.712;2023-02-10T16:04:31;10.70;99.90
23371;DHT22;11858;51.056;3.712;2023-02-10T16:06:58;10.90;99.90
23371;DHT22;11858;51.056;3.712;2023-02-10T16:09:24;11.00;99.90
23371;DHT22;11858;51.056;3.712;2023-02-10T16:11:50;10.90;99.90
23371;DHT22;11858;51.056;3.712;2023-02-10T16:14:17;10.80;99.90
23371;DHT22;11858;51.056;3.712;2023-02-10T16:16:45;10.80;99.90
23371;DHT22;11858;51.056;3.712;2023-02-10T16:19:14;10.90;99.90
23371;DHT22;11858;51.056;3.712;2023-02-10T16:21:41;10.90;99.90
23371;DHT22;11858;51.056;3.712;2023-02-10T16:24:14;10.80;99.90
23371;DHT22;11858;51.056;3.712;2023-02-10T16:26:41;10.80;99.90
23371;DHT22;11858;51.056;3.712;2023-02-10T16:29:17;10.40;99.90
23371;DHT22;11858;51.056;3.712;2023-02-10T16:31:43;10.20;99.90
23371;DHT22;11858;51.056;3.712;2023-02-10T16:34:09;10.30;99.90
23371;DHT22;11858;51.056;3.712;2023-02-10T16:36:35;10.40;99.90
23371;DHT22;11858;51.056;3.712;2023-02-10T16:39:01;10.20;99.90
23371;DHT22;11858;51.056;3.712;2023-02-10T16:41:27;10.20;99.90
23371;DHT22;11858;51.056;3.712;2023-02-10T16:43:53;10.20;99.90
23371;DHT22;11858;51.056;3.712;2023-02-10T16:46:18;10.00;99.90
23371;DHT22;11858;51.056;3.712;2023-02-10T16:48:52;9.90;99.90
23371;DHT22;11858;51.056;3.712;2023-02-10T16:51:18;9.80;99.90
23371;DHT22;11858;51.056;3.712;2023-02-10T16:53:44;9.70;99.90
23371;DHT22;11858;51.056;3.712;2023-02-10T16:56:15;9.40;99.90
23371;DHT22;11858;51.056;3.712;2023-02-10T16:58:41;9.20;99.90
23371;DHT22;11858;51.056;3.712;2023-02-10T17:01:07;9.40;99.90
23371;DHT22;11858;51.056;3.712;2023-02-10T17:03:33;9.40;99.90
23371;DHT22;11858;51.056;3.712;2023-02-10T17:05:59;9.40;99.90
23371;DHT22;11858;51.056;3.712;2023-02-10T17:08:25;9.40;99.90
23371;DHT22;11858;51.056;3.712;2023-02-10T17:10:50;9.30;99.90
23371;DHT22;11858;51.056;3.712;2023-02-10T17:13:19;9.40;99.90
23371;DHT22;11858;51.056;3.712;2023-02-10T17:15:44;9.40;99.90
23371;DHT22;11858;51.056;3.712;2023-02-10T17:18:14;9.50;99.90
23371;DHT22;11858;51.056;3.712;2023-02-10T17:20:40;9.30;99.90
23371;DHT22;11858;51.056;3.712;2023-02-10T17:23:06;9.10;99.90
23371;DHT22;11858;51.056;3.712;2023-02-10T17:25:33;9.10;99.90
23371;DHT22;11858;51.056;3.712;2023-02-10T17:28:01;9.20;99.90
23371;DHT22;11858;51.056;3.712;2023-02-10T17:30:29;9.20;99.90
23371;DHT22;11858;51.056;3.712;2023-02-10T17:32:54;9.10;99.90
23371;DHT22;11858;51.056;3.712;2023-02-10T17:35:22;9.00;99.90
23371;DHT22;11858;51.056;3.712;2023-02-10T17:37:49;9.00;99.90
23371;DHT22;11858;51.056;3.712;2023-02-10T17:40:35;9.00;99.90
23371;DHT22;11858;51.056;3.712;2023-02-10T17:43:00;9.00;99.90
23371;DHT22;11858;51.056;3.712;2023-02-10T17:45:26;9.00;99.90
23371;DHT22;11858;51.056;3.712;2023-02-10T17:47:52;9.00;99.90
23371;DHT22;11858;51.056;3.712;2023-02-10T17:50:18;9.00;99.90
23371;DHT22;11858;51.056;3.712;2023-02-10T17:52:43;9.00;99.90
23371;DHT22;11858;51.056;3.712;2023-02-10T17:55:10;8.90;99.90
23371;DHT22;11858;51.056;3.712;2023-02-10T17:57:39;8.90;99.90
23371;DHT22;11858;51.056;3.712;2023-02-10T18:00:06;8.90;99.90
23371;DHT22;11858;51.056;3.712;2023-02-10T18:02:32;8.80;99.90
23371;DHT22;11858;51.056;3.712;2023-02-10T18:04:57;8.90;99.90
23371;DHT22;11858;51.056;3.712;2023-02-10T18:07:23;8.80;99.90
23371;DHT22;11858;51.056;3.712;2023-02-10T18:09:49;8.80;99.90
23371;DHT22;11858;51.056;3.712;2023-02-10T18:12:15;8.60;99.90
23371;DHT22;11858;51.056;3.712;2023-02-10T18:14:41;8.70;99.90